Time;durP1;ratioP1;P1;durP2;ratioP2;P2;SDS_P1;SDS_P2;PMS_P1;PMS_P2;Temp;Humidity;BMP_temperature;BMP_pressure;BME280_temperature;BME280_humidity;BME280_pressure;Samples;Min_cycle;Max_cycle;Signal;HPM_P1;HPM_P2
2022/11/17 00:02:05;;;;;;;4.40;2.30;;;;;;;;;;109087;1259;22545;-32
2022/11/17 00:04:37;;;;;;;3.80;2.00;;;;;;;;;;109039;1260;22518;-32
2022/11/17 00:07:09;;;;;;;4.40;2.10;;;;;;;;;;109045;1259;23899;-32
2022/11/17 00:09:42;;;;;;;4.00;2.20;;;;;;;;;;108981;1259;22502;-32
2022/11/17 00:15:06;;;;;;;4.30;2.10;;;;;;;;;;108999;1262;22589;-32
2022/11/17 00:17:39;;;;;;;4.00;2.00;;;;;;;;;;109022;1266;22536;-32
2022/11/17 00:23:07;;;;;;;3.40;1.80;;;;;;;;;;109058;1264;22543;-32
2022/11/17 00:25:39;;;;;;;3.70;1.90;;;;;;;;;;109069;1260;22614;-32
2022/11/17 00:28:11;;;;;;;3.60;1.70;;;;;;;;;;109068;1260;22520;-32
2022/11/17 00:36:27;;;;;;;3.80;1.70;;;;;;;;;;108914;1263;22630;-32
2022/11/17 00:38:59;;;;;;;3.80;1.80;;;;;;;;;;108968;1261;22487;-32
2022/11/17 00:41:32;;;;;;;3.80;1.90;;;;;;;;;;109057;1259;22567;-32
2022/11/17 00:44:07;;;;;;;3.40;1.60;;;;;;;;;;109067;1266;22533;-32
2022/11/17 00:46:40;;;;;;;3.60;1.70;;;;;;;;;;109120;1260;25261;-32
2022/11/17 00:49:14;;;;;;;3.20;1.60;;;;;;;;;;108975;1266;22538;-32
2022/11/17 00:51:47;;;;;;;3.40;1.80;;;;;;;;;;108779;1265;355773;-32
2022/11/17 00:54:22;;;;;;;3.50;1.70;;;;;;;;;;109022;1263;22615;-32
2022/11/17 00:56:57;;;;;;;3.00;1.60;;;;;;;;;;109029;1266;22536;-32
2022/11/17 00:59:29;;;;;;;3.60;1.90;;;;;;;;;;108987;1260;22489;-32
2022/11/17 01:02:01;;;;;;;3.00;1.60;;;;;;;;;;109050;1260;23862;-32
2022/11/17 01:04:34;;;;;;;3.30;1.60;;;;;;;;;;109041;1261;22690;-32
2022/11/17 01:07:06;;;;;;;3.00;1.50;;;;;;;;;;109032;1265;22556;-32
2022/11/17 01:09:38;;;;;;;3.30;1.60;;;;;;;;;;109006;1263;22540;-31
2022/11/17 01:12:11;;;;;;;3.10;1.60;;;;;;;;;;108994;1265;22541;-32
2022/11/17 01:14:43;;;;;;;3.60;1.50;;;;;;;;;;108950;1261;22512;-32
2022/11/17 01:17:15;;;;;;;2.80;1.40;;;;;;;;;;108919;1262;22627;-32
2022/11/17 01:19:48;;;;;;;3.20;1.50;;;;;;;;;;108999;1260;25166;-32
2022/11/17 01:22:20;;;;;;;3.00;1.50;;;;;;;;;;109033;1259;22535;-32
2022/11/17 01:24:52;;;;;;;3.20;1.40;;;;;;;;;;109011;1263;22625;-32
2022/11/17 01:27:27;;;;;;;3.00;1.30;;;;;;;;;;109018;1259;25258;-32
2022/11/17 01:29:59;;;;;;;3.00;1.30;;;;;;;;;;108993;1260;22599;-32
2022/11/17 01:32:31;;;;;;;3.70;1.50;;;;;;;;;;109008;1266;22603;-32
2022/11/17 01:35:03;;;;;;;3.10;1.40;;;;;;;;;;108990;1259;22544;-32
2022/11/17 01:37:35;;;;;;;3.20;1.30;;;;;;;;;;109039;1265;25924;-32
2022/11/17 01:40:11;;;;;;;3.00;1.50;;;;;;;;;;108990;1261;22583;-32
2022/11/17 01:42:43;;;;;;;2.80;1.30;;;;;;;;;;109031;1259;22570;-32
2022/11/17 01:45:24;;;;;;;3.10;1.20;;;;;;;;;;109033;1261;22578;-32
2022/11/17 01:47:59;;;;;;;2.80;1.40;;;;;;;;;;109009;1264;25177;-32
2022/11/17 01:50:37;;;;;;;2.80;1.30;;;;;;;;;;108978;1266;22593;-32
2022/11/17 01:53:14;;;;;;;2.80;1.20;;;;;;;;;;109016;1266;23008;-32
2022/11/17 01:55:52;;;;;;;2.50;1.30;;;;;;;;;;108985;1263;22532;-32
2022/11/17 01:58:30;;;;;;;2.80;1.20;;;;;;;;;;109031;1264;22753;-32
2022/11/17 02:01:02;;;;;;;2.30;1.10;;;;;;;;;;108967;1262;22548;-32
2022/11/17 02:03:36;;;;;;;2.50;1.20;;;;;;;;;;109029;1259;22535;-32
2022/11/17 02:06:15;;;;;;;2.00;1.10;;;;;;;;;;109079;1266;22519;-32
2022/11/17 02:08:51;;;;;;;2.40;1.10;;;;;;;;;;109040;1265;22792;-32
2022/11/17 02:11:24;;;;;;;2.50;1.20;;;;;;;;;;108990;1260;23845;-32
2022/11/17 02:13:58;;;;;;;2.70;1.00;;;;;;;;;;109016;1261;22562;-32
2022/11/17 02:16:30;;;;;;;2.50;1.20;;;;;;;;;;108954;1265;22551;-32
2022/11/17 02:19:02;;;;;;;2.40;1.10;;;;;;;;;;109007;1266;25312;-32
2022/11/17 02:22:06;;;;;;;2.60;1.10;;;;;;;;;;108967;1266;22586;-32
2022/11/17 02:25:11;;;;;;;2.10;1.10;;;;;;;;;;109036;1260;22618;-32
2022/11/17 02:28:08;;;;;;;2.50;1.10;;;;;;;;;;108825;1263;22541;-32
2022/11/17 02:30:52;;;;;;;1.90;0.90;;;;;;;;;;108919;1266;25251;-32
2022/11/17 02:33:38;;;;;;;1.90;1.00;;;;;;;;;;108636;1269;22615;-32
2022/11/17 02:36:19;;;;;;;2.60;1.20;;;;;;;;;;108839;1262;22544;-32
2022/11/17 02:39:00;;;;;;;2.40;1.00;;;;;;;;;;108825;1267;22635;-32
2022/11/17 02:41:38;;;;;;;2.20;1.00;;;;;;;;;;108800;1263;24081;-32
2022/11/17 02:44:15;;;;;;;2.20;1.00;;;;;;;;;;108973;1266;22549;-32
2022/11/17 02:46:54;;;;;;;2.70;1.30;;;;;;;;;;108959;1266;22629;-32
2022/11/17 02:49:31;;;;;;;2.60;1.10;;;;;;;;;;108979;1266;22548;-32
2022/11/17 02:52:05;;;;;;;2.30;1.00;;;;;;;;;;108874;1266;25416;-32
2022/11/17 02:54:37;;;;;;;2.10;1.10;;;;;;;;;;108890;1262;22552;-32
2022/11/17 02:57:33;;;;;;;2.00;1.00;;;;;;;;;;108891;1269;22544;-32
2022/11/17 03:00:11;;;;;;;2.30;1.00;;;;;;;;;;108903;1267;22597;-32
2022/11/17 03:03:07;;;;;;;2.80;1.10;;;;;;;;;;108919;1264;22550;-32
2022/11/17 03:05:48;;;;;;;2.20;1.00;;;;;;;;;;108945;1266;22637;-32
2022/11/17 03:08:37;;;;;;;2.30;1.00;;;;;;;;;;108962;1260;22549;-32
2022/11/17 03:11:10;;;;;;;2.40;1.00;;;;;;;;;;108934;1259;22555;-32
2022/11/17 03:13:51;;;;;;;2.10;0.90;;;;;;;;;;108897;1266;25929;-32
2022/11/17 03:16:34;;;;;;;2.40;0.90;;;;;;;;;;108876;1264;22564;-32
2022/11/17 03:19:14;;;;;;;2.00;0.80;;;;;;;;;;108872;1263;22654;-32
2022/11/17 03:21:50;;;;;;;1.90;1.00;;;;;;;;;;108932;1268;22480;-32
2022/11/17 03:24:26;;;;;;;2.50;1.10;;;;;;;;;;108954;1266;22537;-32
2022/11/17 03:27:06;;;;;;;2.40;0.90;;;;;;;;;;108982;1258;22584;-32
2022/11/17 03:29:43;;;;;;;2.70;1.00;;;;;;;;;;108964;1263;22545;-32
2022/11/17 03:32:18;;;;;;;2.00;0.80;;;;;;;;;;108974;1260;22592;-32
2022/11/17 03:34:58;;;;;;;2.50;1.20;;;;;;;;;;108914;1263;25273;-32
2022/11/17 03:37:33;;;;;;;1.80;0.90;;;;;;;;;;108914;1267;22490;-32
2022/11/17 03:40:10;;;;;;;1.80;0.80;;;;;;;;;;108929;1267;22519;-32
2022/11/17 03:42:51;;;;;;;1.90;0.90;;;;;;;;;;108757;1263;22605;-32
2022/11/17 03:45:27;;;;;;;2.20;0.90;;;;;;;;;;108973;1265;22659;-32
2022/11/17 03:48:07;;;;;;;2.00;0.90;;;;;;;;;;108993;1263;22580;-32
2022/11/17 03:50:43;;;;;;;2.40;1.00;;;;;;;;;;108952;1266;25302;-32
2022/11/17 03:53:17;;;;;;;1.70;0.80;;;;;;;;;;108924;1259;26083;-32
2022/11/17 03:55:57;;;;;;;2.20;0.90;;;;;;;;;;108914;1263;25322;-32
2022/11/17 03:58:34;;;;;;;2.10;0.90;;;;;;;;;;108873;1262;22510;-32
2022/11/17 04:01:08;;;;;;;2.60;0.90;;;;;;;;;;108905;1267;22673;-32
2022/11/17 04:03:40;;;;;;;2.20;0.90;;;;;;;;;;108892;1266;22666;-32
2022/11/17 04:06:12;;;;;;;2.20;1.00;;;;;;;;;;108976;1261;22657;-32
2022/11/17 04:08:45;;;;;;;2.20;1.00;;;;;;;;;;108963;1261;24053;-32
2022/11/17 04:16:59;;;;;;;2.70;1.00;;;;;;;;;;108901;1267;22540;-32
2022/11/17 04:19:31;;;;;;;2.50;1.10;;;;;;;;;;108893;1259;22543;-32
2022/11/17 04:22:03;;;;;;;1.80;0.90;;;;;;;;;;108878;1267;22490;-32
2022/11/17 04:24:35;;;;;;;3.00;1.10;;;;;;;;;;108892;1264;22554;-32
2022/11/17 04:29:57;;;;;;;2.10;0.90;;;;;;;;;;108990;1266;22557;-32
2022/11/17 04:32:29;;;;;;;2.30;0.80;;;;;;;;;;108960;1266;25258;-32
2022/11/17 04:35:01;;;;;;;2.30;1.00;;;;;;;;;;108907;1267;22545;-32
2022/11/17 04:37:33;;;;;;;2.60;1.00;;;;;;;;;;108931;1268;22583;-32
2022/11/17 04:40:09;;;;;;;1.90;0.80;;;;;;;;;;108938;1263;25981;-32
2022/11/17 04:42:40;;;;;;;2.30;0.90;;;;;;;;;;108867;1269;22537;-32
2022/11/17 04:45:13;;;;;;;2.10;0.90;;;;;;;;;;108882;1261;22551;-32
2022/11/17 04:47:46;;;;;;;1.90;0.90;;;;;;;;;;108961;1264;22490;-32
2022/11/17 04:50:19;;;;;;;2.50;1.00;;;;;;;;;;108944;1266;22811;-32
2022/11/17 04:52:51;;;;;;;2.20;0.90;;;;;;;;;;108989;1253;22486;-32
2022/11/17 04:55:24;;;;;;;1.60;0.70;;;;;;;;;;108922;1263;22541;-32
2022/11/17 04:57:56;;;;;;;2.30;1.00;;;;;;;;;;108912;1262;22616;-32
2022/11/17 05:00:28;;;;;;;2.10;0.90;;;;;;;;;;108883;1269;22690;-32
2022/11/17 05:03:00;;;;;;;2.10;0.90;;;;;;;;;;108922;1268;23820;-32
2022/11/17 05:05:33;;;;;;;2.80;0.90;;;;;;;;;;108910;1260;23235;-32
2022/11/17 05:08:05;;;;;;;2.60;1.10;;;;;;;;;;108955;1266;22898;-32
2022/11/17 05:13:30;;;;;;;2.40;0.90;;;;;;;;;;109021;1263;22599;-32
2022/11/17 05:18:52;;;;;;;2.80;1.10;;;;;;;;;;108884;1264;22560;-32
2022/11/17 05:21:24;;;;;;;3.10;1.00;;;;;;;;;;108911;1263;25493;-32
2022/11/17 05:23:56;;;;;;;2.30;1.00;;;;;;;;;;108916;1263;22567;-32
2022/11/17 05:26:30;;;;;;;3.60;1.10;;;;;;;;;;108931;1259;22613;-32
2022/11/17 05:29:05;;;;;;;3.00;1.30;;;;;;;;;;108989;1266;22541;-32
2022/11/17 05:31:38;;;;;;;4.20;1.10;;;;;;;;;;108991;1260;24196;-32
2022/11/17 05:34:12;;;;;;;3.30;1.10;;;;;;;;;;108999;1260;24305;-32
2022/11/17 05:36:46;;;;;;;2.80;1.10;;;;;;;;;;108883;1266;22585;-32
2022/11/17 05:39:17;;;;;;;;;;;;;;;;;;108933;1263;22528;-32
2022/11/17 05:41:49;;;;;;;3.20;1.10;;;;;;;;;;108945;1263;22551;-32
2022/11/17 05:44:21;;;;;;;3.70;1.20;;;;;;;;;;108910;1264;22501;-32
2022/11/17 05:46:56;;;;;;;3.80;1.30;;;;;;;;;;108948;1260;22553;-32
2022/11/17 05:49:31;;;;;;;3.60;1.30;;;;;;;;;;108957;1253;22593;-32
2022/11/17 05:52:03;;;;;;;3.60;1.30;;;;;;;;;;108991;1263;22632;-32
2022/11/17 05:54:36;;;;;;;3.40;1.10;;;;;;;;;;109005;1260;22549;-32
2022/11/17 05:57:13;;;;;;;3.90;1.30;;;;;;;;;;108897;1268;22490;-32
2022/11/17 05:59:52;;;;;;;3.70;1.30;;;;;;;;;;108895;1269;25223;-32
2022/11/17 06:02:30;;;;;;;3.70;1.40;;;;;;;;;;108908;1263;22544;-32
2022/11/17 06:05:04;;;;;;;3.90;1.30;;;;;;;;;;108897;1267;22529;-32
2022/11/17 06:07:37;;;;;;;4.10;1.20;;;;;;;;;;108931;1263;22548;-32
2022/11/17 06:10:14;;;;;;;4.70;1.40;;;;;;;;;;108976;1263;22519;-32
2022/11/17 06:12:46;;;;;;;3.30;1.30;;;;;;;;;;108878;1265;25226;-32
2022/11/17 06:15:21;;;;;;;3.50;1.40;;;;;;;;;;108871;1258;22609;-30
2022/11/17 06:17:57;;;;;;;4.50;1.20;;;;;;;;;;108840;1262;25430;-30
2022/11/17 06:20:37;;;;;;;4.10;1.30;;;;;;;;;;108846;1263;22523;-30
2022/11/17 06:23:12;;;;;;;3.30;1.10;;;;;;;;;;108852;1269;25384;-30
2022/11/17 06:25:44;;;;;;;3.80;1.00;;;;;;;;;;108834;1263;22538;-30
2022/11/17 06:28:20;;;;;;;3.40;1.40;;;;;;;;;;108755;1256;23875;-30
2022/11/17 06:30:53;;;;;;;3.00;1.20;;;;;;;;;;108941;1257;22584;-32
2022/11/17 06:33:26;;;;;;;4.20;1.30;;;;;;;;;;108980;1262;22502;-32
2022/11/17 06:36:04;;;;;;;3.10;1.20;;;;;;;;;;108957;1261;22546;-32
2022/11/17 06:38:36;;;;;;;3.80;1.20;;;;;;;;;;108903;1260;22749;-28
2022/11/17 06:41:09;;;;;;;4.50;1.20;;;;;;;;;;108896;1269;22703;-29
2022/11/17 06:43:41;;;;;;;3.80;1.10;;;;;;;;;;108885;1263;23896;-28
2022/11/17 06:46:13;;;;;;;2.90;1.10;;;;;;;;;;108877;1264;22545;-28
2022/11/17 06:48:46;;;;;;;3.50;1.10;;;;;;;;;;108953;1261;22637;-29
2022/11/17 06:51:18;;;;;;;3.30;1.10;;;;;;;;;;108998;1263;22541;-28
2022/11/17 06:53:50;;;;;;;4.40;1.60;;;;;;;;;;108974;1263;22505;-28
2022/11/17 06:56:22;;;;;;;3.10;1.20;;;;;;;;;;108984;1253;22584;-28
2022/11/17 06:58:57;;;;;;;3.10;1.10;;;;;;;;;;108819;1262;22558;-32
2022/11/17 07:01:32;;;;;;;3.80;1.30;;;;;;;;;;108826;1262;22551;-32
2022/11/17 07:04:08;;;;;;;2.90;0.80;;;;;;;;;;108863;1262;22589;-32
2022/11/17 07:06:40;;;;;;;2.60;1.00;;;;;;;;;;108888;1262;25392;-32
2022/11/17 07:09:13;;;;;;;3.00;1.00;;;;;;;;;;108961;1262;22497;-32
2022/11/17 07:11:45;;;;;;;7.20;1.70;;;;;;;;;;109001;1269;22639;-32
2022/11/17 07:14:17;;;;;;;5.50;1.30;;;;;;;;;;108911;1262;22529;-32
2022/11/17 07:16:49;;;;;;;3.10;1.20;;;;;;;;;;108848;1262;22484;-33
2022/11/17 07:19:22;;;;;;;4.20;1.20;;;;;;;;;;108861;1263;22553;-32
2022/11/17 07:21:54;;;;;;;4.90;1.20;;;;;;;;;;108908;1262;22634;-32
2022/11/17 07:24:26;;;;;;;3.80;1.20;;;;;;;;;;108840;1256;22635;-32
2022/11/17 07:26:58;;;;;;;4.00;1.20;;;;;;;;;;108885;1262;22560;-32
2022/11/17 07:29:30;;;;;;;5.00;1.10;;;;;;;;;;108888;1261;22549;-32
2022/11/17 07:32:02;;;;;;;4.50;1.10;;;;;;;;;;108981;1262;22538;-33
2022/11/17 07:34:35;;;;;;;3.20;1.20;;;;;;;;;;109014;1261;22545;-29
2022/11/17 07:37:07;;;;;;;2.90;1.30;;;;;;;;;;108941;1261;22631;-29
2022/11/17 07:39:39;;;;;;;3.70;1.30;;;;;;;;;;108868;1262;25264;-29
2022/11/17 07:44:57;;;;;;;4.20;1.10;;;;;;;;;;108456;1259;22543;-29
2022/11/17 07:47:29;;;;;;;3.20;0.90;;;;;;;;;;108394;1261;22607;-30
2022/11/17 07:50:03;;;;;;;3.40;1.20;;;;;;;;;;108421;1268;22582;-29
2022/11/17 07:52:35;;;;;;;3.10;1.00;;;;;;;;;;108485;1268;22614;-29
2022/11/17 07:55:11;;;;;;;5.40;1.10;;;;;;;;;;108444;1263;22592;-30
2022/11/17 07:57:43;;;;;;;3.30;1.20;;;;;;;;;;108493;1262;22561;-29
2022/11/17 08:00:19;;;;;;;2.40;1.00;;;;;;;;;;108375;1268;22569;-29
2022/11/17 08:02:52;;;;;;;4.30;1.20;;;;;;;;;;108409;1266;22552;-29
2022/11/17 08:05:29;;;;;;;3.50;1.00;;;;;;;;;;108477;1268;22545;-30
2022/11/17 08:08:02;;;;;;;2.80;1.10;;;;;;;;;;108534;1268;25392;-29
2022/11/17 08:10:33;;;;;;;;;;;;;;;;;;108441;1264;22589;-29
2022/11/17 08:13:06;;;;;;;2.60;1.00;;;;;;;;;;108434;1267;22566;-30
2022/11/17 08:15:38;;;;;;;2.50;0.90;;;;;;;;;;108472;1267;22562;-28
2022/11/17 08:18:11;;;;;;;3.00;1.10;;;;;;;;;;108445;1267;22534;-29
2022/11/17 08:20:41;;;;;;;;;;;;;;;;;;108426;1262;25219;-29
2022/11/17 08:23:16;;;;;;;2.10;0.90;;;;;;;;;;108468;1268;22499;-28
2022/11/17 08:25:48;;;;;;;3.30;1.00;;;;;;;;;;108520;1268;22559;-29
2022/11/17 08:28:21;;;;;;;2.90;1.00;;;;;;;;;;108497;1266;22547;-29
2022/11/17 08:30:55;;;;;;;2.60;1.10;;;;;;;;;;108409;1265;25237;-28
2022/11/17 08:33:27;;;;;;;2.90;0.90;;;;;;;;;;108489;1262;22742;-29
2022/11/17 08:36:01;;;;;;;2.60;1.00;;;;;;;;;;108462;1267;23897;-29
2022/11/17 08:38:33;;;;;;;3.00;1.10;;;;;;;;;;108463;1266;22495;-29
2022/11/17 08:41:10;;;;;;;2.50;1.00;;;;;;;;;;108470;1266;24201;-30
2022/11/17 08:43:42;;;;;;;2.10;0.80;;;;;;;;;;108577;1265;25953;-29
2022/11/17 08:46:15;;;;;;;3.00;1.00;;;;;;;;;;108591;1259;22543;-29
2022/11/17 08:48:48;;;;;;;2.40;1.00;;;;;;;;;;108578;1265;22602;-29
2022/11/17 08:51:21;;;;;;;2.80;1.10;;;;;;;;;;108255;1265;409310;-29
2022/11/17 08:53:53;;;;;;;2.00;0.90;;;;;;;;;;108530;1266;22614;-29
2022/11/17 08:56:28;;;;;;;3.90;1.00;;;;;;;;;;108446;1266;22613;-29
2022/11/17 08:59:01;;;;;;;3.00;0.90;;;;;;;;;;108434;1267;25507;-29
2022/11/17 09:01:34;;;;;;;2.80;0.90;;;;;;;;;;108428;1268;22647;-30
2022/11/17 09:04:06;;;;;;;2.80;1.00;;;;;;;;;;108396;1266;25776;-30
2022/11/17 09:06:38;;;;;;;3.10;1.00;;;;;;;;;;108527;1268;25264;-29
2022/11/17 09:09:11;;;;;;;1.90;0.80;;;;;;;;;;108525;1265;22694;-29
2022/11/17 09:11:43;;;;;;;3.00;0.80;;;;;;;;;;108367;1266;22594;-30
2022/11/17 09:14:15;;;;;;;3.00;0.90;;;;;;;;;;108408;1267;22642;-29
2022/11/17 09:16:47;;;;;;;2.80;1.00;;;;;;;;;;108419;1266;22562;-29
2022/11/17 09:19:22;;;;;;;3.20;1.40;;;;;;;;;;108448;1268;22598;-29
2022/11/17 09:21:55;;;;;;;3.20;1.10;;;;;;;;;;108481;1266;23778;-29
2022/11/17 09:24:27;;;;;;;4.00;1.50;;;;;;;;;;108498;1266;22902;-29
2022/11/17 09:27:01;;;;;;;3.60;1.40;;;;;;;;;;108492;1265;22603;-29
2022/11/17 09:29:34;;;;;;;3.40;1.10;;;;;;;;;;108526;1268;22704;-29
2022/11/17 09:32:07;;;;;;;3.80;1.20;;;;;;;;;;108426;1265;23213;-29
2022/11/17 09:34:39;;;;;;;3.40;1.10;;;;;;;;;;108411;1266;23895;-30
2022/11/17 09:37:11;;;;;;;4.20;1.20;;;;;;;;;;108442;1266;22547;-29
2022/11/17 09:39:43;;;;;;;3.50;1.30;;;;;;;;;;108435;1266;22518;-29
2022/11/17 09:42:19;;;;;;;3.90;1.10;;;;;;;;;;108445;1265;22529;-29
2022/11/17 09:44:56;;;;;;;3.50;1.30;;;;;;;;;;108501;1265;23712;-30
2022/11/17 09:47:40;;;;;;;3.10;1.10;;;;;;;;;;108501;1259;22687;-30
2022/11/17 09:50:25;;;;;;;3.30;1.10;;;;;;;;;;108527;1266;22560;-30
2022/11/17 09:53:05;;;;;;;4.20;1.30;;;;;;;;;;108514;1266;22751;-30
2022/11/17 09:55:41;;;;;;;3.80;1.40;;;;;;;;;;108517;1262;22502;-29
2022/11/17 09:58:26;;;;;;;4.20;1.40;;;;;;;;;;108530;1265;22535;-29
2022/11/17 10:01:00;;;;;;;3.60;1.30;;;;;;;;;;108323;1266;22557;-30
2022/11/17 10:03:35;;;;;;;2.80;1.10;;;;;;;;;;108517;1268;22512;-29
2022/11/17 10:06:16;;;;;;;3.60;1.30;;;;;;;;;;108516;1266;22485;-29
2022/11/17 10:08:59;;;;;;;2.60;1.10;;;;;;;;;;108543;1266;22557;-30
2022/11/17 10:11:35;;;;;;;2.50;1.20;;;;;;;;;;108523;1268;22745;-29
2022/11/17 10:14:16;;;;;;;3.80;1.40;;;;;;;;;;108515;1258;23783;-30
2022/11/17 10:16:55;;;;;;;4.00;1.30;;;;;;;;;;108502;1265;22652;-30
2022/11/17 10:19:29;;;;;;;2.50;1.10;;;;;;;;;;108521;1268;22936;-29
2022/11/17 10:22:19;;;;;;;3.10;1.40;;;;;;;;;;108512;1268;23913;-30
2022/11/17 10:24:54;;;;;;;2.70;1.20;;;;;;;;;;108545;1266;25410;-29
2022/11/17 10:27:28;;;;;;;3.10;1.30;;;;;;;;;;108526;1268;22623;-29
2022/11/17 10:30:05;;;;;;;2.80;1.20;;;;;;;;;;108566;1266;22547;-29
2022/11/17 10:32:49;;;;;;;2.80;1.10;;;;;;;;;;108525;1268;25277;-30
2022/11/17 10:35:23;;;;;;;3.20;1.20;;;;;;;;;;108556;1263;25392;-29
2022/11/17 10:38:02;;;;;;;2.60;1.10;;;;;;;;;;108530;1268;22573;-30
2022/11/17 10:40:47;;;;;;;2.70;1.20;;;;;;;;;;108472;1260;22590;-30
2022/11/17 10:43:28;;;;;;;3.10;1.20;;;;;;;;;;108517;1265;22548;-29
2022/11/17 10:46:05;;;;;;;3.80;1.30;;;;;;;;;;108511;1266;22546;-30
2022/11/17 10:48:39;;;;;;;2.90;1.30;;;;;;;;;;108503;1266;22640;-30
2022/11/17 10:51:26;;;;;;;2.90;1.20;;;;;;;;;;108533;1267;23000;-29
2022/11/17 10:54:20;;;;;;;2.90;1.20;;;;;;;;;;108588;1268;22573;-29
2022/11/17 10:56:55;;;;;;;3.40;1.40;;;;;;;;;;108486;1268;24039;-29
2022/11/17 10:59:31;;;;;;;3.30;1.40;;;;;;;;;;108528;1260;22557;-30
2022/11/17 11:02:30;;;;;;;3.40;1.50;;;;;;;;;;108493;1267;22540;-28
2022/11/17 11:05:18;;;;;;;2.90;1.30;;;;;;;;;;108528;1266;22544;-28
2022/11/17 11:08:21;;;;;;;4.00;1.30;;;;;;;;;;108442;1267;22543;-29
2022/11/17 11:11:28;;;;;;;3.20;1.30;;;;;;;;;;108508;1268;22826;-28
2022/11/17 11:14:12;;;;;;;2.90;1.20;;;;;;;;;;108480;1265;22553;-28
2022/11/17 11:16:47;;;;;;;3.50;1.40;;;;;;;;;;108486;1268;22553;-29
2022/11/17 11:19:21;;;;;;;2.70;1.30;;;;;;;;;;108509;1266;22616;-28
2022/11/17 11:22:25;;;;;;;2.70;1.20;;;;;;;;;;108465;1266;22562;-28
2022/11/17 11:25:16;;;;;;;3.00;1.40;;;;;;;;;;108424;1267;23007;-28
2022/11/17 11:28:08;;;;;;;3.10;1.30;;;;;;;;;;108424;1266;22550;-29
2022/11/17 11:30:45;;;;;;;2.90;1.10;;;;;;;;;;108442;1267;25394;-29
2022/11/17 11:33:33;;;;;;;2.80;1.20;;;;;;;;;;108405;1267;22554;-29
2022/11/17 11:36:23;;;;;;;2.50;1.10;;;;;;;;;;108448;1268;22553;-29
2022/11/17 11:39:03;;;;;;;3.10;1.30;;;;;;;;;;108516;1268;22791;-28
2022/11/17 11:41:55;;;;;;;3.80;1.40;;;;;;;;;;108507;1268;22584;-29
2022/11/17 11:44:44;;;;;;;3.00;1.30;;;;;;;;;;108402;1267;22550;-30
2022/11/17 11:47:37;;;;;;;3.10;1.30;;;;;;;;;;108400;1267;25399;-30
2022/11/17 11:50:16;;;;;;;;;;;;;;;;;;108362;1265;22496;-30
2022/11/17 11:52:56;;;;;;;3.50;1.40;;;;;;;;;;108464;1266;22621;-28
2022/11/17 11:55:33;;;;;;;3.10;1.30;;;;;;;;;;108435;1268;24174;-29
2022/11/17 11:58:15;;;;;;;2.60;1.20;;;;;;;;;;108447;1268;22514;-28
2022/11/17 12:00:48;;;;;;;3.00;1.30;;;;;;;;;;108451;1268;22564;-28
2022/11/17 12:03:33;;;;;;;3.50;1.40;;;;;;;;;;108422;1268;22549;-28
2022/11/17 12:09:40;;;;;;;3.20;1.40;;;;;;;;;;108403;1268;22604;-28
2022/11/17 12:12:22;;;;;;;2.90;1.30;;;;;;;;;;108435;1268;22553;-28
2022/11/17 12:15:32;;;;;;;3.00;1.40;;;;;;;;;;108466;1268;22499;-28
2022/11/17 12:18:11;;;;;;;3.30;1.40;;;;;;;;;;108459;1269;23818;-28
2022/11/17 12:20:56;;;;;;;2.80;1.30;;;;;;;;;;108385;1267;22657;-28
2022/11/17 12:23:42;;;;;;;2.90;1.30;;;;;;;;;;108459;1267;22562;-28
2022/11/17 12:26:27;;;;;;;3.30;1.20;;;;;;;;;;108417;1265;22608;-28
2022/11/17 12:29:31;;;;;;;3.60;1.50;;;;;;;;;;108426;1266;22611;-29
2022/11/17 12:32:05;;;;;;;3.10;1.30;;;;;;;;;;108385;1266;25385;-28
2022/11/17 12:34:38;;;;;;;3.50;1.40;;;;;;;;;;108366;1270;22707;-29
2022/11/17 12:37:26;;;;;;;2.50;1.30;;;;;;;;;;108454;1267;22549;-29
2022/11/17 12:40:11;;;;;;;3.00;1.30;;;;;;;;;;108485;1267;22717;-29
2022/11/17 12:43:23;;;;;;;3.50;1.50;;;;;;;;;;108412;1267;22559;-29
2022/11/17 12:46:17;;;;;;;3.30;1.50;;;;;;;;;;108397;1267;22583;-29
2022/11/17 12:49:02;;;;;;;3.50;1.40;;;;;;;;;;108365;1268;22554;-29
2022/11/17 12:51:41;;;;;;;3.60;1.70;;;;;;;;;;108381;1264;22672;-29
2022/11/17 12:54:25;;;;;;;3.80;1.50;;;;;;;;;;108445;1268;22550;-29
2022/11/17 12:57:05;;;;;;;3.70;1.70;;;;;;;;;;108447;1265;22565;-29
2022/11/17 12:59:57;;;;;;;3.40;1.70;;;;;;;;;;108566;1265;22695;-29
2022/11/17 13:02:59;;;;;;;3.20;1.30;;;;;;;;;;108533;1268;22563;-28
2022/11/17 13:05:32;;;;;;;3.40;1.50;;;;;;;;;;108540;1267;22671;-29
2022/11/17 13:08:26;;;;;;;4.10;1.60;;;;;;;;;;108466;1269;24192;-30
2022/11/17 13:11:13;;;;;;;3.40;1.60;;;;;;;;;;108415;1268;22483;-30
2022/11/17 13:13:48;;;;;;;3.80;1.40;;;;;;;;;;108436;1268;24291;-29
2022/11/17 13:16:24;;;;;;;3.20;1.40;;;;;;;;;;108483;1264;22633;-30
2022/11/17 13:18:57;;;;;;;3.40;1.50;;;;;;;;;;108504;1268;23724;-28
2022/11/17 13:21:34;;;;;;;3.80;1.70;;;;;;;;;;108539;1267;25937;-29
2022/11/17 13:24:09;;;;;;;4.40;1.30;;;;;;;;;;108481;1266;22572;-30
2022/11/17 13:26:41;;;;;;;3.40;1.50;;;;;;;;;;108503;1266;22550;-29
2022/11/17 13:29:21;;;;;;;3.80;1.40;;;;;;;;;;108455;1262;24192;-31
2022/11/17 13:32:09;;;;;;;3.70;1.70;;;;;;;;;;108450;1265;23869;-31
2022/11/17 13:34:51;;;;;;;3.50;1.50;;;;;;;;;;108434;1274;22553;-29
2022/11/17 13:37:27;;;;;;;3.80;1.80;;;;;;;;;;108510;1266;22570;-28
2022/11/17 13:40:04;;;;;;;3.90;1.70;;;;;;;;;;108415;1268;23867;-28
2022/11/17 13:42:59;;;;;;;3.20;1.40;;;;;;;;;;108454;1266;22618;-30
2022/11/17 13:45:34;;;;;;;3.20;1.50;;;;;;;;;;108506;1266;22560;-28
2022/11/17 13:48:19;;;;;;;4.10;1.60;;;;;;;;;;108425;1265;22736;-28
2022/11/17 13:50:51;;;;;;;3.10;1.60;;;;;;;;;;108466;1266;25242;-28
2022/11/17 13:53:27;;;;;;;3.60;1.60;;;;;;;;;;108492;1266;22536;-29
2022/11/17 13:56:01;;;;;;;3.40;1.50;;;;;;;;;;108484;1265;26945;-29
2022/11/17 13:58:40;;;;;;;3.40;1.60;;;;;;;;;;108481;1266;22585;-29
2022/11/17 14:01:19;;;;;;;3.50;1.50;;;;;;;;;;108495;1266;23010;-29
2022/11/17 14:03:52;;;;;;;3.70;1.60;;;;;;;;;;108526;1268;25234;-29
2022/11/17 14:06:25;;;;;;;3.40;1.80;;;;;;;;;;108456;1258;22788;-29
2022/11/17 14:09:06;;;;;;;;;;;;;;;;;;108553;1260;23808;-29
2022/11/17 14:11:42;;;;;;;3.70;1.60;;;;;;;;;;108505;1268;22546;-29
2022/11/17 14:14:26;;;;;;;3.40;1.20;;;;;;;;;;108514;1265;22544;-29
2022/11/17 14:17:11;;;;;;;3.10;1.40;;;;;;;;;;108455;1269;22540;-28
2022/11/17 14:19:48;;;;;;;3.20;1.50;;;;;;;;;;108486;1265;22497;-29
2022/11/17 14:22:30;;;;;;;3.40;1.50;;;;;;;;;;108471;1265;22565;-29
2022/11/17 14:25:05;;;;;;;3.60;1.70;;;;;;;;;;108522;1266;22635;-29
2022/11/17 14:27:41;;;;;;;3.20;1.40;;;;;;;;;;108503;1269;22515;-28
2022/11/17 14:30:20;;;;;;;3.20;1.40;;;;;;;;;;108509;1267;23888;-28
2022/11/17 14:32:52;;;;;;;3.40;1.50;;;;;;;;;;108493;1267;22503;-29
2022/11/17 14:35:26;;;;;;;3.50;1.50;;;;;;;;;;108527;1269;22488;-29
2022/11/17 14:38:03;;;;;;;3.70;1.50;;;;;;;;;;108500;1265;22630;-29
2022/11/17 14:40:35;;;;;;;3.20;1.50;;;;;;;;;;108471;1265;22812;-30
2022/11/17 14:43:07;;;;;;;3.60;1.60;;;;;;;;;;108516;1265;22570;-30
2022/11/17 14:45:39;;;;;;;3.30;1.50;;;;;;;;;;108435;1267;22588;-30
2022/11/17 14:52:30;;;;;;;3.90;1.60;;;;;;;;;;108435;1258;22570;-30
2022/11/17 14:55:02;;;;;;;3.90;1.70;;;;;;;;;;108502;1265;22988;-29
2022/11/17 14:57:37;;;;;;;4.00;2.00;;;;;;;;;;108464;1265;22528;-30
2022/11/17 15:00:13;;;;;;;3.50;1.70;;;;;;;;;;108438;1268;22606;-29
2022/11/17 15:02:45;;;;;;;3.60;1.90;;;;;;;;;;108444;1268;25394;-29
2022/11/17 15:05:17;;;;;;;4.30;1.80;;;;;;;;;;108428;1266;22606;-29
2022/11/17 15:07:49;;;;;;;3.90;1.70;;;;;;;;;;108416;1270;22552;-30
2022/11/17 15:10:22;;;;;;;3.70;1.80;;;;;;;;;;108553;1265;22555;-30
2022/11/17 15:12:54;;;;;;;3.70;1.80;;;;;;;;;;108554;1268;22506;-30
2022/11/17 15:15:29;;;;;;;3.90;2.00;;;;;;;;;;108528;1269;22615;-30
2022/11/17 15:18:01;;;;;;;4.30;1.90;;;;;;;;;;108481;1265;22555;-32
2022/11/17 15:20:33;;;;;;;3.90;1.90;;;;;;;;;;108391;1271;23923;-32
2022/11/17 15:23:06;;;;;;;4.30;2.00;;;;;;;;;;108336;1271;22765;-32
2022/11/17 15:25:40;;;;;;;4.60;2.20;;;;;;;;;;108359;1267;22490;-32
2022/11/17 15:28:12;;;;;;;4.30;2.00;;;;;;;;;;108413;1267;22584;-32
2022/11/17 15:30:44;;;;;;;4.10;1.80;;;;;;;;;;108471;1266;22554;-32
2022/11/17 15:33:16;;;;;;;3.90;2.00;;;;;;;;;;108519;1268;23296;-30
2022/11/17 15:35:51;;;;;;;5.20;2.70;;;;;;;;;;108532;1268;22603;-30
2022/11/17 15:38:23;;;;;;;4.90;3.00;;;;;;;;;;108405;1269;25271;-33
2022/11/17 15:40:59;;;;;;;4.70;2.70;;;;;;;;;;108443;1267;22563;-33
2022/11/17 15:43:34;;;;;;;5.60;3.70;;;;;;;;;;108463;1271;22550;-33
2022/11/17 15:46:09;;;;;;;6.80;3.50;;;;;;;;;;108500;1264;22573;-33
2022/11/17 15:48:46;;;;;;;7.10;4.20;;;;;;;;;;108431;1272;22503;-33
2022/11/17 15:51:21;;;;;;;6.90;4.60;;;;;;;;;;108498;1259;22562;-33
2022/11/17 15:53:56;;;;;;;8.00;4.50;;;;;;;;;;108567;1267;22631;-33
2022/11/17 15:56:30;;;;;;;7.70;5.10;;;;;;;;;;108474;1271;22566;-33
2022/11/17 15:59:04;;;;;;;7.40;5.30;;;;;;;;;;108395;1267;22543;-32
2022/11/17 16:01:37;;;;;;;8.40;6.50;;;;;;;;;;108439;1268;22635;-32
2022/11/17 16:04:13;;;;;;;9.70;6.60;;;;;;;;;;108428;1270;22551;-32